Time;durP1;ratioP1;P1;durP2;ratioP2;P2;SDS_P1;SDS_P2;PMS_P1;PMS_P2;Temp;Humidity;BMP_temperature;BMP_pressure;BME280_temperature;BME280_humidity;BME280_pressure;Samples;Min_cycle;Max_cycle;Signal;HPM_P1;HPM_P2
2022/11/12 00:00:58;;;;;;;6.22;4.80;;;;;;;;;;5099253;28;20044;-84
2022/11/12 00:03:25;;;;;;;5.15;4.22;;;;;;;;;;5099597;28;20048;-83
2022/11/12 00:05:54;;;;;;;7.38;4.35;;;;;;;;;;5081922;28;20123;-84
2022/11/12 00:08:22;;;;;;;7.38;4.65;;;;;;;;;;5099987;28;20040;-84
2022/11/12 00:10:51;;;;;;;7.63;4.25;;;;;;;;;;5099494;28;20094;-84
2022/11/12 00:13:18;;;;;;;10.18;4.80;;;;;;;;;;5098964;28;20050;-84
2022/11/12 00:15:48;;;;;;;7.82;4.30;;;;;;;;;;5099133;28;20490;-84
2022/11/12 00:18:15;;;;;;;6.55;4.88;;;;;;;;;;5080544;28;20052;-83
2022/11/12 00:20:42;;;;;;;6.10;4.35;;;;;;;;;;5098871;28;20056;-83
2022/11/12 00:23:09;;;;;;;5.03;3.97;;;;;;;;;;5080477;28;20052;-84
2022/11/12 00:25:37;;;;;;;9.43;5.22;;;;;;;;;;5098671;28;20070;-84
2022/11/12 00:28:06;;;;;;;6.50;5.13;;;;;;;;;;5081235;28;20039;-84
2022/11/12 00:30:35;;;;;;;6.97;4.78;;;;;;;;;;5098857;28;20146;-83
2022/11/12 00:33:03;;;;;;;5.60;3.65;;;;;;;;;;5081479;28;20048;-84
2022/11/12 00:35:33;;;;;;;8.45;4.13;;;;;;;;;;5080999;28;20111;-84
2022/11/12 00:38:00;;;;;;;9.52;4.40;;;;;;;;;;5081512;28;20511;-84
2022/11/12 00:40:28;;;;;;;5.53;3.30;;;;;;;;;;5080830;28;20048;-84
2022/11/12 00:42:55;;;;;;;6.68;4.15;;;;;;;;;;5099130;28;20047;-84
2022/11/12 00:45:22;;;;;;;7.82;4.32;;;;;;;;;;5099047;28;20055;-83
2022/11/12 00:47:53;;;;;;;5.32;4.10;;;;;;;;;;5098880;28;20070;-83
2022/11/12 00:50:20;;;;;;;10.35;4.28;;;;;;;;;;5081320;28;20044;-84
2022/11/12 00:52:47;;;;;;;5.13;4.20;;;;;;;;;;5080926;28;20044;-84
2022/11/12 00:55:16;;;;;;;5.97;4.05;;;;;;;;;;5098989;28;20048;-84
2022/11/12 00:57:43;;;;;;;5.53;3.75;;;;;;;;;;5080295;28;20098;-84
2022/11/12 01:00:14;;;;;;;6.07;3.88;;;;;;;;;;5098805;28;20473;-83
2022/11/12 01:02:41;;;;;;;12.85;4.50;;;;;;;;;;5081368;28;20055;-84
2022/11/12 01:05:16;;;;;;;5.93;4.05;;;;;;;;;;5082533;28;20131;-84
2022/11/12 01:07:44;;;;;;;7.32;4.10;;;;;;;;;;5080625;28;20048;-84
2022/11/12 01:10:11;;;;;;;8.50;3.90;;;;;;;;;;5078018;28;20083;-84
2022/11/12 01:12:39;;;;;;;5.68;4.10;;;;;;;;;;5098685;28;20040;-84
2022/11/12 01:15:06;;;;;;;13.77;5.15;;;;;;;;;;5080780;28;20176;-84
2022/11/12 01:17:34;;;;;;;7.65;4.38;;;;;;;;;;5080852;28;20050;-84
2022/11/12 01:20:01;;;;;;;6.78;4.22;;;;;;;;;;5098295;28;20052;-84
2022/11/12 01:22:29;;;;;;;6.30;4.20;;;;;;;;;;5097924;28;20058;-84
2022/11/12 01:24:56;;;;;;;6.68;3.70;;;;;;;;;;5080075;28;20093;-84
2022/11/12 01:27:23;;;;;;;7.13;4.15;;;;;;;;;;5080021;28;20498;-83
2022/11/12 01:29:50;;;;;;;8.57;3.90;;;;;;;;;;5080542;28;20524;-84
2022/11/12 01:32:19;;;;;;;11.45;4.80;;;;;;;;;;5084631;28;20409;-84
2022/11/12 01:34:46;;;;;;;9.27;4.47;;;;;;;;;;5084822;28;20070;-84
2022/11/12 01:37:13;;;;;;;7.47;4.70;;;;;;;;;;5102457;28;20101;-83
2022/11/12 01:39:40;;;;;;;6.10;4.97;;;;;;;;;;5084252;28;20051;-84
2022/11/12 01:42:08;;;;;;;15.68;4.50;;;;;;;;;;5102862;28;20069;-83
2022/11/12 01:44:38;;;;;;;6.88;4.13;;;;;;;;;;5095487;28;20028;-84
2022/11/12 01:47:12;;;;;;;10.95;4.80;;;;;;;;;;5119451;28;20087;-85
2022/11/12 01:49:42;;;;;;;11.90;5.43;;;;;;;;;;5107048;28;20112;-84
2022/11/12 01:52:16;;;;;;;5.85;4.18;;;;;;;;;;5107959;28;20048;-84
2022/11/12 01:54:45;;;;;;;7.78;4.40;;;;;;;;;;5104499;28;20040;-84
2022/11/12 01:57:14;;;;;;;5.97;4.47;;;;;;;;;;5104861;28;20071;-84
2022/11/12 01:59:42;;;;;;;8.38;4.40;;;;;;;;;;5106662;28;20047;-85
2022/11/12 02:02:09;;;;;;;7.38;4.60;;;;;;;;;;5085519;28;20076;-84
2022/11/12 02:04:38;;;;;;;6.30;5.15;;;;;;;;;;5083605;28;20056;-84
2022/11/12 02:07:06;;;;;;;11.18;4.57;;;;;;;;;;5101614;28;20101;-84
2022/11/12 02:09:34;;;;;;;6.57;4.75;;;;;;;;;;5101843;28;20151;-84
2022/11/12 02:12:02;;;;;;;10.52;5.38;;;;;;;;;;5084691;28;20050;-84
2022/11/12 02:14:29;;;;;;;9.05;5.50;;;;;;;;;;5084140;28;20417;-84
2022/11/12 02:16:58;;;;;;;9.77;4.43;;;;;;;;;;5102306;28;20047;-84
2022/11/12 02:19:26;;;;;;;11.85;4.82;;;;;;;;;;5084172;28;20063;-83
2022/11/12 02:21:54;;;;;;;15.02;4.90;;;;;;;;;;5102402;28;20059;-84
2022/11/12 02:24:22;;;;;;;7.78;4.60;;;;;;;;;;5084114;28;20058;-84
2022/11/12 02:26:52;;;;;;;8.05;4.75;;;;;;;;;;5083909;28;20047;-84
2022/11/12 02:29:19;;;;;;;7.03;4.63;;;;;;;;;;5100870;28;20060;-83
2022/11/12 02:31:46;;;;;;;8.52;4.75;;;;;;;;;;5101439;28;20075;-83
2022/11/12 02:34:13;;;;;;;6.88;4.82;;;;;;;;;;5083122;28;20044;-84
2022/11/12 02:36:41;;;;;;;7.22;4.70;;;;;;;;;;5083905;28;20054;-84
2022/11/12 02:39:08;;;;;;;5.88;4.35;;;;;;;;;;5083177;28;20040;-84
2022/11/12 02:41:35;;;;;;;9.02;3.83;;;;;;;;;;5083126;28;20093;-84
2022/11/12 02:44:03;;;;;;;10.25;4.47;;;;;;;;;;5066808;28;20048;-83
2022/11/12 02:46:30;;;;;;;9.38;3.90;;;;;;;;;;5083232;28;20043;-82
2022/11/12 02:48:57;;;;;;;6.88;4.28;;;;;;;;;;5083247;28;20147;-83
2022/11/12 02:51:24;;;;;;;8.13;4.35;;;;;;;;;;5083388;28;20056;-83
2022/11/12 02:53:52;;;;;;;14.75;4.53;;;;;;;;;;5101294;28;20054;-84
2022/11/12 02:56:20;;;;;;;11.20;4.90;;;;;;;;;;5082878;28;20071;-83
2022/11/12 02:58:47;;;;;;;7.35;4.47;;;;;;;;;;5100700;28;20050;-83
2022/11/12 03:01:14;;;;;;;6.65;4.35;;;;;;;;;;5100611;28;20107;-83
2022/11/12 03:03:42;;;;;;;7.28;4.22;;;;;;;;;;5100468;28;20052;-84
2022/11/12 03:06:09;;;;;;;10.10;4.47;;;;;;;;;;5100758;28;20044;-83
2022/11/12 03:08:37;;;;;;;13.13;4.88;;;;;;;;;;5082964;28;21397;-83
2022/11/12 03:11:08;;;;;;;13.25;4.13;;;;;;;;;;5082086;28;20044;-84
2022/11/12 03:13:37;;;;;;;14.85;4.25;;;;;;;;;;5100131;28;20048;-83
2022/11/12 03:16:04;;;;;;;5.95;4.18;;;;;;;;;;5082449;28;20073;-84
2022/11/12 03:18:32;;;;;;;6.90;3.67;;;;;;;;;;5081581;28;20083;-84
2022/11/12 03:20:59;;;;;;;7.68;4.35;;;;;;;;;;5082693;28;20048;-84
2022/11/12 03:23:27;;;;;;;7.07;3.53;;;;;;;;;;5082205;28;20066;-84
2022/11/12 03:25:55;;;;;;;4.78;3.63;;;;;;;;;;5082015;28;20486;-83
2022/11/12 03:28:22;;;;;;;5.93;4.50;;;;;;;;;;5099638;28;20122;-83
2022/11/12 03:30:51;;;;;;;6.22;4.40;;;;;;;;;;5082337;28;20139;-83
2022/11/12 03:33:18;;;;;;;6.00;4.28;;;;;;;;;;5081874;28;20124;-83
2022/11/12 03:35:46;;;;;;;7.05;4.60;;;;;;;;;;5082231;28;20047;-83
2022/11/12 03:38:13;;;;;;;7.10;4.25;;;;;;;;;;5081625;28;20052;-82
2022/11/12 03:40:40;;;;;;;7.35;4.90;;;;;;;;;;5099676;28;20126;-83
2022/11/12 03:43:08;;;;;;;9.98;5.45;;;;;;;;;;5081854;28;20480;-84
2022/11/12 03:45:35;;;;;;;5.97;4.60;;;;;;;;;;5081186;28;20410;-84
2022/11/12 03:48:02;;;;;;;8.52;4.75;;;;;;;;;;5099320;28;20040;-84
2022/11/12 03:50:29;;;;;;;4.47;4.03;;;;;;;;;;5081076;28;20059;-84
2022/11/12 03:52:57;;;;;;;6.63;4.25;;;;;;;;;;5080897;28;20040;-84
2022/11/12 03:55:26;;;;;;;6.25;4.38;;;;;;;;;;5080587;28;20052;-83
2022/11/12 03:57:54;;;;;;;7.97;4.30;;;;;;;;;;5099259;28;20052;-84
2022/11/12 04:00:22;;;;;;;7.68;4.30;;;;;;;;;;5081020;28;20087;-84
2022/11/12 04:02:49;;;;;;;4.90;4.25;;;;;;;;;;5080782;28;20054;-84
2022/11/12 04:10:54;;;;;;;7.40;4.05;;;;;;;;;;5099250;28;20082;-83
2022/11/12 04:13:27;;;;;;;9.88;4.10;;;;;;;;;;5081042;28;20047;-84
2022/11/12 04:27:14;;;;;;;3.70;3.40;;;;;;;;;;5099185;28;20426;-84
2022/11/12 04:32:28;;;;;;;6.20;4.13;;;;;;;;;;5098194;28;20105;-84
2022/11/12 04:34:56;;;;;;;5.93;4.32;;;;;;;;;;5080756;28;20048;-83
2022/11/12 04:37:24;;;;;;;6.40;3.67;;;;;;;;;;5098188;28;20062;-83
2022/11/12 04:39:51;;;;;;;4.43;4.03;;;;;;;;;;5098388;28;20056;-84
2022/11/12 04:45:07;;;;;;;7.10;4.00;;;;;;;;;;5098529;28;20526;-84
2022/11/12 04:47:39;;;;;;;6.93;3.88;;;;;;;;;;5080180;28;20054;-83
2022/11/12 04:50:08;;;;;;;13.15;4.68;;;;;;;;;;5097814;28;20603;-83
2022/11/12 04:52:36;;;;;;;6.68;3.95;;;;;;;;;;5098160;28;20091;-84
2022/11/12 04:55:04;;;;;;;3.97;3.58;;;;;;;;;;5079906;28;20067;-84
2022/11/12 04:57:31;;;;;;;7.25;3.72;;;;;;;;;;5080328;28;20062;-83
2022/11/12 04:59:58;;;;;;;11.20;4.13;;;;;;;;;;5079714;28;20114;-83
2022/11/12 05:02:26;;;;;;;6.47;3.80;;;;;;;;;;5080447;28;20475;-84
2022/11/12 05:04:53;;;;;;;3.65;3.33;;;;;;;;;;5084933;28;20061;-84
2022/11/12 05:07:21;;;;;;;12.90;4.78;;;;;;;;;;5087434;28;20143;-84
2022/11/12 05:09:48;;;;;;;6.50;4.22;;;;;;;;;;5085592;28;20062;-83
2022/11/12 05:12:15;;;;;;;12.07;5.05;;;;;;;;;;5086375;28;20040;-83
2022/11/12 05:14:42;;;;;;;7.30;4.97;;;;;;;;;;5087104;28;20051;-83
2022/11/12 05:17:10;;;;;;;9.43;4.60;;;;;;;;;;5086679;28;20055;-83
2022/11/12 05:19:37;;;;;;;10.70;4.75;;;;;;;;;;5086605;28;20052;-84
2022/11/12 05:22:05;;;;;;;9.30;4.57;;;;;;;;;;5104515;28;20044;-82
2022/11/12 05:24:39;;;;;;;9.40;4.32;;;;;;;;;;5085824;28;20056;-83
2022/11/12 05:27:13;;;;;;;9.20;4.18;;;;;;;;;;5103771;28;20070;-83
2022/11/12 05:29:40;;;;;;;8.25;3.85;;;;;;;;;;5085360;28;20569;-83
2022/11/12 05:32:08;;;;;;;4.70;4.22;;;;;;;;;;5085556;28;20517;-83
2022/11/12 05:34:35;;;;;;;5.97;4.18;;;;;;;;;;5102609;28;20047;-83
2022/11/12 05:37:03;;;;;;;8.35;4.63;;;;;;;;;;5085357;28;20059;-83
2022/11/12 05:39:30;;;;;;;7.22;5.75;;;;;;;;;;5085347;28;20051;-83
2022/11/12 05:41:58;;;;;;;11.93;9.20;;;;;;;;;;5104827;28;20063;-84
2022/11/12 05:44:39;;;;;;;12.73;6.75;;;;;;;;;;5089597;28;20054;-84
2022/11/12 05:47:07;;;;;;;9.73;6.00;;;;;;;;;;5087984;28;20135;-83
2022/11/12 05:49:34;;;;;;;10.95;7.50;;;;;;;;;;5088641;28;20108;-83
2022/11/12 05:52:01;;;;;;;11.38;7.20;;;;;;;;;;5106667;28;20067;-83
2022/11/12 05:54:29;;;;;;;6.20;5.20;;;;;;;;;;5090414;28;20127;-83
2022/11/12 05:56:57;;;;;;;11.57;5.60;;;;;;;;;;5108825;28;20488;-84
2022/11/12 05:59:24;;;;;;;8.13;5.10;;;;;;;;;;5090797;28;20044;-84
2022/11/12 06:01:52;;;;;;;8.23;5.68;;;;;;;;;;5109052;28;20052;-83
2022/11/12 06:04:20;;;;;;;6.63;4.93;;;;;;;;;;5090963;28;20084;-83
2022/11/12 06:06:48;;;;;;;8.18;5.05;;;;;;;;;;5092204;28;20074;-84
2022/11/12 06:09:16;;;;;;;12.65;7.55;;;;;;;;;;5145686;22;20028;-85
2022/11/12 06:11:43;;;;;;;17.77;10.23;;;;;;;;;;5080190;28;20135;-87
2022/11/12 06:14:10;;;;;;;18.05;10.02;;;;;;;;;;5098088;28;20058;-87
2022/11/12 06:16:38;;;;;;;16.17;7.43;;;;;;;;;;5095287;28;20430;-87
2022/11/12 06:19:05;;;;;;;8.45;5.90;;;;;;;;;;5096074;28;20560;-87
2022/11/12 06:21:32;;;;;;;10.65;5.30;;;;;;;;;;5078037;28;20051;-87
2022/11/12 06:24:00;;;;;;;6.88;5.35;;;;;;;;;;5094970;28;20097;-87
2022/11/12 06:26:28;;;;;;;8.70;6.30;;;;;;;;;;5094882;28;20056;-86
2022/11/12 06:28:56;;;;;;;6.18;4.88;;;;;;;;;;5095577;28;20048;-87
2022/11/12 06:31:24;;;;;;;13.23;4.80;;;;;;;;;;5095733;28;20135;-87
2022/11/12 06:33:51;;;;;;;7.10;4.15;;;;;;;;;;5096600;28;20048;-88
2022/11/12 06:36:19;;;;;;;4.80;3.72;;;;;;;;;;5078133;28;20048;-87
2022/11/12 06:38:47;;;;;;;9.35;4.00;;;;;;;;;;5095527;28;20127;-87
2022/11/12 06:41:14;;;;;;;11.68;4.45;;;;;;;;;;5096488;28;20055;-87
2022/11/12 06:43:42;;;;;;;6.50;4.88;;;;;;;;;;5095035;28;20507;-88
2022/11/12 06:46:15;;;;;;;4.30;3.90;;;;;;;;;;5094793;28;20048;-87
2022/11/12 06:48:43;;;;;;;7.13;4.63;;;;;;;;;;5095120;28;20044;-86
2022/11/12 06:51:18;;;;;;;9.18;5.53;;;;;;;;;;5096143;28;20044;-88
2022/11/12 06:53:45;;;;;;;7.90;4.53;;;;;;;;;;5095231;28;20054;-88
2022/11/12 06:56:13;;;;;;;6.55;4.85;;;;;;;;;;5094728;28;20090;-88
2022/11/12 06:58:43;;;;;;;4.57;4.18;;;;;;;;;;5097097;28;20048;-84
2022/11/12 07:01:11;;;;;;;7.15;5.38;;;;;;;;;;5104252;28;20497;-84
2022/11/12 07:03:40;;;;;;;9.10;6.05;;;;;;;;;;5102797;28;20069;-84
2022/11/12 07:06:09;;;;;;;6.80;5.70;;;;;;;;;;5088786;28;20045;-83
2022/11/12 07:08:40;;;;;;;6.75;6.03;;;;;;;;;;5082883;28;20135;-84
2022/11/12 07:11:08;;;;;;;10.15;5.95;;;;;;;;;;5087825;28;20052;-85
2022/11/12 07:13:36;;;;;;;7.15;4.88;;;;;;;;;;5088954;28;20055;-84
2022/11/12 07:16:04;;;;;;;10.23;7.00;;;;;;;;;;5089822;28;20060;-85
2022/11/12 07:18:32;;;;;;;9.55;6.57;;;;;;;;;;5090084;28;20055;-84
2022/11/12 07:21:05;;;;;;;9.43;6.90;;;;;;;;;;5087278;28;20068;-84
2022/11/12 07:23:33;;;;;;;13.25;8.60;;;;;;;;;;5084713;28;20107;-84
2022/11/12 07:29:13;;;;;;;11.77;6.75;;;;;;;;;;5098401;28;20044;-84
2022/11/12 07:32:01;;;;;;;13.73;8.30;;;;;;;;;;5083789;28;20044;-83
2022/11/12 07:34:28;;;;;;;15.50;9.70;;;;;;;;;;5081830;28;20507;-84
2022/11/12 07:36:55;;;;;;;12.85;8.90;;;;;;;;;;5081936;28;20127;-84
2022/11/12 07:39:23;;;;;;;25.85;17.20;;;;;;;;;;5082204;28;20066;-84
2022/11/12 07:41:51;;;;;;;22.23;18.17;;;;;;;;;;5081343;28;20075;-84
2022/11/12 07:44:19;;;;;;;15.77;12.15;;;;;;;;;;5081551;28;20060;-84
2022/11/12 07:46:53;;;;;;;18.08;11.60;;;;;;;;;;5080696;28;20072;-84
2022/11/12 07:49:22;;;;;;;21.73;14.15;;;;;;;;;;5079687;28;20075;-84
2022/11/12 07:51:50;;;;;;;19.70;10.50;;;;;;;;;;5080113;28;20485;-84
2022/11/12 07:54:18;;;;;;;11.35;8.18;;;;;;;;;;5080990;28;20475;-85
2022/11/12 07:56:49;;;;;;;13.57;7.82;;;;;;;;;;5080411;28;20051;-84
2022/11/12 07:59:16;;;;;;;16.75;11.90;;;;;;;;;;5080650;28;20079;-85
2022/11/12 08:01:44;;;;;;;15.68;11.00;;;;;;;;;;5078531;28;20139;-89
2022/11/12 08:04:12;;;;;;;14.02;8.55;;;;;;;;;;5076746;28;20381;-89
2022/11/12 08:06:41;;;;;;;14.68;8.98;;;;;;;;;;5077059;28;20040;-89
2022/11/12 08:09:09;;;;;;;21.30;11.15;;;;;;;;;;5077094;28;20040;-89
2022/11/12 08:11:36;;;;;;;18.25;7.22;;;;;;;;;;5101956;28;20043;-89
2022/11/12 08:14:05;;;;;;;20.08;7.32;;;;;;;;;;5097402;28;20047;-89
2022/11/12 08:16:32;;;;;;;12.98;6.80;;;;;;;;;;5096718;28;20086;-89
2022/11/12 08:19:00;;;;;;;14.35;7.15;;;;;;;;;;5096782;28;20127;-88
2022/11/12 08:21:27;;;;;;;12.07;4.68;;;;;;;;;;5096088;28;20877;-89
2022/11/12 08:23:56;;;;;;;12.50;5.15;;;;;;;;;;5096773;28;20078;-89
2022/11/12 08:26:25;;;;;;;6.15;3.80;;;;;;;;;;5097077;28;20048;-89
2022/11/12 08:28:53;;;;;;;10.55;3.10;;;;;;;;;;5096466;28;20051;-89
2022/11/12 08:31:21;;;;;;;5.43;2.50;;;;;;;;;;5096594;28;20040;-90
2022/11/12 08:33:50;;;;;;;19.58;3.20;;;;;;;;;;5105335;28;20111;-84
2022/11/12 08:36:17;;;;;;;20.25;3.97;;;;;;;;;;5108967;28;20078;-86
2022/11/12 08:38:45;;;;;;;13.18;3.45;;;;;;;;;;5107797;28;20056;-85
2022/11/12 08:41:13;;;;;;;8.85;3.60;;;;;;;;;;5104296;28;20044;-85
2022/11/12 08:43:42;;;;;;;11.02;4.32;;;;;;;;;;5102825;28;20074;-85
2022/11/12 08:46:09;;;;;;;23.45;4.13;;;;;;;;;;5103080;28;20074;-84
2022/11/12 08:48:40;;;;;;;14.13;4.15;;;;;;;;;;5103366;28;20071;-85
2022/11/12 08:51:07;;;;;;;20.65;4.00;;;;;;;;;;5104581;28;20075;-85
2022/11/12 08:53:35;;;;;;;18.48;4.30;;;;;;;;;;5105487;28;20519;-85
2022/11/12 08:56:02;;;;;;;27.55;4.47;;;;;;;;;;5103645;28;20108;-84
2022/11/12 08:58:30;;;;;;;19.52;4.97;;;;;;;;;;5104506;28;20434;-85
2022/11/12 09:01:03;;;;;;;27.58;4.25;;;;;;;;;;5103702;28;20130;-84
2022/11/12 09:03:31;;;;;;;23.58;3.88;;;;;;;;;;5104231;28;20464;-86
2022/11/12 09:06:01;;;;;;;25.67;3.92;;;;;;;;;;5103785;28;20480;-85
2022/11/12 09:08:29;;;;;;;23.08;4.70;;;;;;;;;;5101483;28;20044;-90
2022/11/12 09:10:58;;;;;;;18.27;3.78;;;;;;;;;;5095761;28;20063;-90
2022/11/12 09:13:25;;;;;;;10.82;3.25;;;;;;;;;;5097425;28;20067;-91
2022/11/12 09:15:52;;;;;;;24.35;4.30;;;;;;;;;;5096764;28;20096;-89
2022/11/12 09:18:20;;;;;;;13.35;2.88;;;;;;;;;;5096066;28;20071;-89
2022/11/12 09:20:47;;;;;;;19.75;2.88;;;;;;;;;;5095965;28;20150;-90
2022/11/12 09:23:16;;;;;;;18.83;2.25;;;;;;;;;;5095798;28;20048;-90
2022/11/12 09:25:45;;;;;;;21.85;2.70;;;;;;;;;;5103624;28;20055;-86
2022/11/12 09:28:14;;;;;;;29.55;2.10;;;;;;;;;;5103799;28;20040;-85
2022/11/12 09:30:42;;;;;;;29.70;3.00;;;;;;;;;;5103840;28;20044;-86
2022/11/12 09:33:10;;;;;;;18.58;2.28;;;;;;;;;;5103717;28;20044;-84
2022/11/12 09:35:37;;;;;;;24.92;2.38;;;;;;;;;;5103388;28;20135;-86
2022/11/12 09:38:09;;;;;;;8.18;1.55;;;;;;;;;;5101141;28;20128;-84
2022/11/12 09:40:41;;;;;;;6.65;1.00;;;;;;;;;;5098177;28;20079;-84
2022/11/12 09:43:19;;;;;;;2.80;0.68;;;;;;;;;;5097523;28;20506;-84
2022/11/12 09:45:47;;;;;;;2.20;0.90;;;;;;;;;;5096459;28;20048;-84
2022/11/12 09:48:37;;;;;;;4.32;0.98;;;;;;;;;;5112613;28;20055;-87
2022/11/12 09:51:34;;;;;;;7.65;0.95;;;;;;;;;;5096771;28;20134;-87
2022/11/12 09:54:05;;;;;;;2.08;0.80;;;;;;;;;;5099859;28;20055;-87
2022/11/12 09:56:33;;;;;;;5.63;0.70;;;;;;;;;;5105114;28;20067;-85
2022/11/12 09:59:00;;;;;;;8.10;1.13;;;;;;;;;;5093131;28;20514;-85
2022/11/12 10:02:00;;;;;;;3.63;0.88;;;;;;;;;;5085788;28;20492;-86
2022/11/12 10:04:31;;;;;;;12.73;1.25;;;;;;;;;;5044854;28;20048;-85
2022/11/12 10:07:07;;;;;;;3.63;1.20;;;;;;;;;;5066727;28;20496;-85
2022/11/12 10:10:02;;;;;;;13.45;1.58;;;;;;;;;;5083434;28;20097;-85
2022/11/12 10:12:32;;;;;;;9.35;2.08;;;;;;;;;;5059400;28;20045;-85
2022/11/12 10:18:24;;;;;;;7.28;1.80;;;;;;;;;;5093209;28;20075;-85
2022/11/12 10:20:58;;;;;;;5.45;1.85;;;;;;;;;;5096238;28;20048;-85
2022/11/12 10:23:28;;;;;;;8.18;1.73;;;;;;;;;;5058792;28;20132;-84
2022/11/12 10:25:57;;;;;;;6.32;1.73;;;;;;;;;;5059120;28;20068;-84
2022/11/12 10:28:38;;;;;;;1.90;1.50;;;;;;;;;;5059238;28;20044;-84
2022/11/12 10:31:10;;;;;;;12.40;1.80;;;;;;;;;;5075024;28;20131;-84
2022/11/12 10:33:38;;;;;;;7.20;2.05;;;;;;;;;;5075365;28;20087;-84
2022/11/12 10:36:13;;;;;;;21.20;3.20;;;;;;;;;;5075094;28;20080;-85
2022/11/12 10:38:43;;;;;;;21.02;3.40;;;;;;;;;;5058260;28;20083;-84
2022/11/12 10:41:18;;;;;;;26.55;4.20;;;;;;;;;;5074626;28;20059;-84
2022/11/12 10:47:23;;;;;;;23.85;2.92;;;;;;;;;;5075595;28;20412;-86
2022/11/12 10:50:16;;;;;;;15.27;2.85;;;;;;;;;;5058363;28;20127;-86
2022/11/12 10:52:53;;;;;;;21.10;3.38;;;;;;;;;;5060497;28;20049;-85
2022/11/12 10:55:26;;;;;;;19.75;3.08;;;;;;;;;;5060912;28;20094;-86
2022/11/12 11:04:46;;;;;;;14.13;2.58;;;;;;;;;;5096122;28;20031;-85
2022/11/12 11:07:21;;;;;;;22.55;2.92;;;;;;;;;;5077599;28;20127;-85
2022/11/12 11:10:08;;;;;;;20.65;3.00;;;;;;;;;;5077015;28;20566;-86
2022/11/12 11:12:36;;;;;;;14.30;2.47;;;;;;;;;;5081625;28;20134;-85
2022/11/12 11:15:08;;;;;;;21.27;2.85;;;;;;;;;;5078127;28;20086;-85
2022/11/12 11:17:35;;;;;;;3.17;1.50;;;;;;;;;;5077587;28;20464;-85
2022/11/12 11:20:15;;;;;;;7.80;1.45;;;;;;;;;;5077765;28;20106;-85
2022/11/12 11:22:45;;;;;;;7.13;1.20;;;;;;;;;;5077710;28;20142;-85
2022/11/12 11:25:17;;;;;;;7.47;1.40;;;;;;;;;;5095335;28;20131;-85
2022/11/12 11:28:01;;;;;;;5.18;1.23;;;;;;;;;;5077467;28;20048;-85
2022/11/12 11:30:28;;;;;;;1.65;1.30;;;;;;;;;;5077500;28;20052;-85
2022/11/12 11:33:14;;;;;;;8.55;1.77;;;;;;;;;;5077367;28;20079;-86
2022/11/12 11:35:59;;;;;;;9.88;1.48;;;;;;;;;;5077576;28;20052;-86
2022/11/12 11:38:37;;;;;;;8.20;1.42;;;;;;;;;;5077559;28;20044;-85
2022/11/12 11:41:07;;;;;;;6.18;1.20;;;;;;;;;;5078014;28;20425;-87
2022/11/12 11:47:21;;;;;;;7.55;1.35;;;;;;;;;;5095287;28;20053;-87
2022/11/12 11:49:54;;;;;;;6.93;1.45;;;;;;;;;;5076734;28;20515;-87
2022/11/12 11:52:52;;;;;;;5.85;1.42;;;;;;;;;;5077151;28;20048;-87
2022/11/12 11:55:30;;;;;;;2.03;0.95;;;;;;;;;;5076856;28;20102;-88
2022/11/12 11:58:13;;;;;;;4.55;0.90;;;;;;;;;;5076231;28;20044;-89
2022/11/12 12:01:07;;;;;;;3.35;1.08;;;;;;;;;;5077348;28;20409;-89
2022/11/12 12:03:43;;;;;;;3.13;0.95;;;;;;;;;;5077404;28;20377;-87
2022/11/12 12:06:46;;;;;;;5.20;1.33;;;;;;;;;;5077915;28;20051;-87
2022/11/12 12:09:13;;;;;;;5.80;1.90;;;;;;;;;;5077189;28;20055;-87
2022/11/12 12:11:46;;;;;;;6.75;1.58;;;;;;;;;;5082397;23;20063;-92
2022/11/12 12:14:13;;;;;;;2.50;0.90;;;;;;;;;;5064783;28;20056;-93
2022/11/12 12:17:00;;;;;;;4.78;1.50;;;;;;;;;;5072991;28;20050;-94
2022/11/12 12:19:36;;;;;;;11.40;1.70;;;;;;;;;;5073323;28;20427;-94
2022/11/12 12:22:05;;;;;;;11.40;4.00;;;;;;;;;;5074406;28;20560;-92
2022/11/12 12:24:36;;;;;;;7.28;3.30;;;;;;;;;;5073815;28;20048;-93
2022/11/12 12:27:25;;;;;;;3.10;1.20;;;;;;;;;;5073016;28;20052;-92
2022/11/12 12:29:57;;;;;;;6.60;1.75;;;;;;;;;;5073232;28;20493;-92
2022/11/12 12:32:33;;;;;;;6.20;3.78;;;;;;;;;;5073393;28;20504;-93
2022/11/12 12:35:23;;;;;;;6.15;2.35;;;;;;;;;;5072093;28;20059;-93
2022/11/12 12:37:57;;;;;;;12.52;6.78;;;;;;;;;;5052470;28;20052;-92
2022/11/12 12:40:53;;;;;;;13.88;7.63;;;;;;;;;;5093879;28;20056;-93
2022/11/12 12:43:24;;;;;;;1.70;1.50;;;;;;;;;;5057471;28;20071;-92
2022/11/12 12:45:51;;;;;;;3.30;1.40;;;;;;;;;;5093110;28;20050;-93
2022/11/12 12:48:24;;;;;;;2.40;1.40;;;;;;;;;;5092913;28;20052;-92
2022/11/12 12:50:52;;;;;;;;;;;;;;;;;;5093619;28;20055;-93
2022/11/12 12:53:22;;;;;;;19.77;14.50;;;;;;;;;;5093006;28;19920;-92
2022/11/12 12:55:50;;;;;;;6.55;4.68;;;;;;;;;;5092996;28;20052;-93
2022/11/12 12:58:17;;;;;;;3.53;1.73;;;;;;;;;;5092672;28;20056;-93
2022/11/12 13:00:49;;;;;;;3.67;1.92;;;;;;;;;;5092744;28;20110;-92
2022/11/12 13:03:49;;;;;;;3.38;1.38;;;;;;;;;;5093074;28;20047;-92
2022/11/12 13:06:22;;;;;;;4.63;1.55;;;;;;;;;;5023603;28;20127;-93
2022/11/12 13:08:53;;;;;;;3.92;1.70;;;;;;;;;;5091826;28;20044;-92
2022/11/12 13:12:20;;;;;;;6.70;2.28;;;;;;;;;;5093264;28;20056;-92
2022/11/12 13:14:35;;;;;;;2.05;1.58;;;;;;;;;;5093407;28;20044;-92
2022/11/12 13:17:02;;;;;;;4.00;1.40;;;;;;;;;;5075744;28;20040;-92
2022/11/12 13:19:32;;;;;;;3.22;1.40;;;;;;;;;;5075853;28;20051;-92
2022/11/12 13:22:17;;;;;;;2.55;1.45;;;;;;;;;;5076176;28;20055;-92
2022/11/12 13:25:04;;;;;;;2.25;1.65;;;;;;;;;;5076199;28;20067;-92
2022/11/12 13:27:43;;;;;;;1.88;1.42;;;;;;;;;;5080396;28;20131;-92
2022/11/12 13:30:15;;;;;;;2.13;1.60;;;;;;;;;;5079646;28;20500;-92
2022/11/12 13:32:49;;;;;;;4.90;2.15;;;;;;;;;;5080471;28;20051;-92
2022/11/12 13:35:22;;;;;;;4.82;1.60;;;;;;;;;;5080089;28;20048;-92
2022/11/12 13:38:07;;;;;;;3.88;1.58;;;;;;;;;;5080051;28;20407;-92
2022/11/12 13:40:41;;;;;;;2.00;1.70;;;;;;;;;;5079973;28;20058;-92
2022/11/12 13:43:14;;;;;;;1.98;1.88;;;;;;;;;;5080081;28;20048;-92
2022/11/12 13:45:50;;;;;;;6.22;1.80;;;;;;;;;;5079874;28;20047;-92
2022/11/12 13:48:29;;;;;;;3.63;1.77;;;;;;;;;;5079530;28;20393;-92
2022/11/12 13:51:02;;;;;;;4.13;1.90;;;;;;;;;;5079844;28;20444;-92
2022/11/12 13:53:30;;;;;;;3.83;1.95;;;;;;;;;;5079659;28;20054;-93
2022/11/12 13:55:58;;;;;;;5.38;1.60;;;;;;;;;;5079550;28;20131;-92
2022/11/12 13:58:26;;;;;;;3.60;1.83;;;;;;;;;;5079480;28;20059;-92
2022/11/12 14:01:12;;;;;;;5.72;2.20;;;;;;;;;;5079506;28;20040;-93
2022/11/12 14:03:44;;;;;;;6.32;2.20;;;;;;;;;;5079657;28;20075;-91
2022/11/12 14:06:16;;;;;;;6.53;2.30;;;;;;;;;;5079222;28;20048;-92
2022/11/12 14:08:49;;;;;;;7.72;2.17;;;;;;;;;;5079322;28;20070;-92
2022/11/12 14:11:28;;;;;;;6.25;2.63;;;;;;;;;;5075375;28;20059;-91
2022/11/12 14:14:15;;;;;;;7.38;2.17;;;;;;;;;;5075894;28;20055;-91
2022/11/12 14:16:52;;;;;;;5.18;2.45;;;;;;;;;;5076085;28;20045;-91
2022/11/12 14:19:47;;;;;;;3.78;2.25;;;;;;;;;;5076587;28;20048;-92
2022/11/12 14:22:17;;;;;;;3.22;1.50;;;;;;;;;;5082637;28;20490;-91
2022/11/12 14:24:45;;;;;;;5.85;2.20;;;;;;;;;;5083169;28;20054;-92
2022/11/12 14:27:23;;;;;;;9.23;2.53;;;;;;;;;;5075703;28;20443;-92
2022/11/12 14:30:03;;;;;;;4.80;2.28;;;;;;;;;;5075365;28;20053;-92
2022/11/12 14:32:38;;;;;;;4.57;2.17;;;;;;;;;;5075190;28;20135;-91
2022/11/12 14:35:16;;;;;;;5.93;2.63;;;;;;;;;;5075349;28;20139;-92
2022/11/12 14:37:47;;;;;;;4.22;2.80;;;;;;;;;;5074693;28;20473;-91
2022/11/12 14:40:18;;;;;;;9.15;3.10;;;;;;;;;;5075323;28;20490;-91
2022/11/12 14:42:46;;;;;;;6.00;3.42;;;;;;;;;;5074979;28;20407;-90
2022/11/12 14:45:17;;;;;;;7.15;3.45;;;;;;;;;;5075194;28;20067;-91
2022/11/12 14:47:45;;;;;;;7.03;2.70;;;;;;;;;;5075393;28;20055;-91
2022/11/12 14:50:28;;;;;;;5.18;2.80;;;;;;;;;;5074904;28;20067;-92
2022/11/12 14:53:07;;;;;;;3.95;3.30;;;;;;;;;;5074936;28;20500;-92
2022/11/12 14:55:36;;;;;;;7.80;3.20;;;;;;;;;;5074876;28;20476;-91
2022/11/12 14:58:04;;;;;;;5.88;3.80;;;;;;;;;;5074853;28;20411;-91
2022/11/12 15:00:31;;;;;;;6.00;4.10;;;;;;;;;;5074880;28;20106;-92
2022/11/12 15:03:00;;;;;;;5.00;3.85;;;;;;;;;;5075059;28;20127;-91
2022/11/12 15:05:27;;;;;;;8.93;4.38;;;;;;;;;;5074794;28;20496;-91
2022/11/12 15:08:02;;;;;;;7.28;3.95;;;;;;;;;;5074964;28;20052;-92
2022/11/12 15:10:32;;;;;;;6.25;3.95;;;;;;;;;;5074471;28;20547;-91
2022/11/12 15:13:01;;;;;;;7.25;4.00;;;;;;;;;;5074679;28;20054;-91
2022/11/12 15:15:28;;;;;;;7.13;3.38;;;;;;;;;;5074508;28;20473;-92
2022/11/12 15:17:57;;;;;;;8.30;3.60;;;;;;;;;;5074384;28;20044;-91
2022/11/12 15:20:24;;;;;;;6.18;3.20;;;;;;;;;;5074465;28;20057;-92
2022/11/12 15:22:52;;;;;;;6.82;3.80;;;;;;;;;;5074163;28;20133;-91
2022/11/12 15:25:25;;;;;;;6.97;3.92;;;;;;;;;;5074179;28;20044;-91
2022/11/12 15:27:52;;;;;;;4.65;3.60;;;;;;;;;;5074522;28;20044;-91
2022/11/12 15:30:22;;;;;;;7.10;4.15;;;;;;;;;;5074850;28;20052;-91
2022/11/12 15:32:51;;;;;;;7.82;4.75;;;;;;;;;;5074792;28;20095;-91
2022/11/12 15:35:21;;;;;;;6.95;4.45;;;;;;;;;;5074184;28;20048;-91
2022/11/12 15:37:48;;;;;;;10.05;4.88;;;;;;;;;;5074964;28;20049;-92
2022/11/12 15:40:17;;;;;;;8.55;4.60;;;;;;;;;;5073901;28;20052;-91
2022/11/12 15:42:46;;;;;;;7.03;4.57;;;;;;;;;;5073300;28;20122;-90